Time;durP1;ratioP1;P1;durP2;ratioP2;P2;SDS_P1;SDS_P2;PMS_P1;PMS_P2;Temp;Humidity;BMP_temperature;BMP_pressure;BME280_temperature;BME280_humidity;BME280_pressure;Samples;Min_cycle;Max_cycle;Signal;HPM_P1;HPM_P2
2022/05/16 00:02:17;;;;;;;0.50;0.50;;;20.10;99.90;;;;;;5130097;27;20235;-79
2022/05/16 00:04:49;;;;;;;3.72;0.90;;;20.20;99.90;;;;;;5114108;27;20218;-81
2022/05/16 00:07:21;;;;;;;0.82;0.70;;;20.30;99.90;;;;;;5107111;28;20199;-79
2022/05/16 00:09:52;;;;;;;1.10;0.70;;;20.30;99.90;;;;;;5110790;28;20195;-79
2022/05/16 00:12:24;;;;;;;0.88;0.50;;;20.30;99.90;;;;;;5121093;27;20645;-80
2022/05/16 00:14:55;;;;;;;1.40;0.70;;;20.40;99.90;;;;;;5119027;27;20230;-80
2022/05/16 00:17:26;;;;;;;3.97;1.05;;;20.40;99.90;;;;;;5115113;27;20718;-80
2022/05/16 00:19:57;;;;;;;0.98;0.70;;;20.50;99.90;;;;;;5128584;27;20654;-81
2022/05/16 00:22:29;;;;;;;2.47;0.90;;;20.60;99.90;;;;;;5110144;27;20198;-80
2022/05/16 00:24:59;;;;;;;1.42;1.08;;;20.60;99.90;;;;;;5107567;27;20271;-80
2022/05/16 00:27:34;;;;;;;1.25;0.75;;;20.70;99.90;;;;;;5110692;27;20601;-79
2022/05/16 00:30:05;;;;;;;2.28;0.88;;;20.80;99.90;;;;;;5110624;28;20672;-80
2022/05/16 00:32:36;;;;;;;1.67;0.90;;;20.90;99.90;;;;;;5114906;27;20723;-80
2022/05/16 00:35:08;;;;;;;4.30;0.80;;;20.90;99.90;;;;;;5113047;28;20557;-79
2022/05/16 00:37:39;;;;;;;0.85;0.60;;;20.90;99.90;;;;;;5110462;27;20685;-80
2022/05/16 00:40:11;;;;;;;0.70;0.70;;;21.00;99.90;;;;;;5108978;27;20198;-80
2022/05/16 00:42:44;;;;;;;0.98;0.70;;;21.00;99.90;;;;;;5113704;28;20281;-81
2022/05/16 00:45:17;;;;;;;1.23;0.90;;;21.00;99.90;;;;;;5109391;27;20214;-79
2022/05/16 00:47:48;;;;;;;1.38;0.85;;;21.10;99.90;;;;;;5115221;27;20191;-80
2022/05/16 00:50:19;;;;;;;1.42;0.90;;;21.10;99.90;;;;;;5110917;27;20239;-81
2022/05/16 00:52:55;;;;;;;12.02;3.50;;;21.20;99.90;;;;;;5120537;27;20190;-81
2022/05/16 00:55:29;;;;;;;13.95;3.97;;;21.20;99.90;;;;;;5119719;27;20195;-80
2022/05/16 00:58:06;;;;;;;1.35;0.77;;;21.30;99.90;;;;;;5109579;28;20214;-81
2022/05/16 01:00:38;;;;;;;1.65;0.80;;;21.40;99.90;;;;;;5109597;27;20194;-79
2022/05/16 01:05:59;;;;;;;1.35;0.80;;;21.70;99.90;;;;;;5115002;27;20263;-81
2022/05/16 01:08:32;;;;;;;0.30;0.30;;;21.70;99.90;;;;;;5113144;27;20252;-80
2022/05/16 01:11:08;;;;;;;0.55;0.40;;;21.80;99.90;;;;;;5110241;27;20195;-79
2022/05/16 01:13:40;;;;;;;0.40;0.30;;;21.90;99.90;;;;;;5115987;27;20705;-79
2022/05/16 01:16:11;;;;;;;0.52;0.30;;;22.00;99.90;;;;;;5071765;28;20207;-79
2022/05/16 01:18:42;;;;;;;0.40;0.40;;;22.00;99.90;;;;;;5073620;28;20192;-79
2022/05/16 01:21:30;;;;;;;1.02;0.40;;;22.00;99.90;;;;;;5070130;28;20200;-81
2022/05/16 01:24:07;;;;;;;18.52;2.05;;;22.10;99.90;;;;;;5069476;28;20188;-80
2022/05/16 01:26:39;;;;;;;0.73;0.40;;;22.10;99.90;;;;;;5074006;28;20219;-81
2022/05/16 01:29:11;;;;;;;1.75;0.32;;;22.20;99.90;;;;;;5072674;28;20188;-80
2022/05/16 01:31:41;;;;;;;2.13;0.40;;;22.30;99.90;;;;;;5075471;28;20278;-81
2022/05/16 01:34:12;;;;;;;4.70;0.60;;;22.40;99.90;;;;;;5065512;28;20196;-81
2022/05/16 01:36:43;;;;;;;2.92;0.50;;;22.40;99.90;;;;;;5071001;28;20570;-79
2022/05/16 01:39:15;;;;;;;0.68;0.40;;;22.50;99.90;;;;;;5065155;28;20267;-79
2022/05/16 01:41:46;;;;;;;1.63;0.40;;;22.60;99.90;;;;;;5066046;28;20200;-81
2022/05/16 01:44:16;;;;;;;2.03;0.60;;;22.50;99.90;;;;;;5090418;28;20241;-80
2022/05/16 01:46:47;;;;;;;1.33;0.40;;;22.60;99.90;;;;;;5072635;28;20227;-80
2022/05/16 01:49:18;;;;;;;1.63;0.52;;;22.70;99.90;;;;;;5067186;28;20192;-80
2022/05/16 01:51:49;;;;;;;0.30;0.30;;;22.70;99.90;;;;;;5069419;28;20195;-78
2022/05/16 01:54:21;;;;;;;0.45;0.30;;;22.70;99.90;;;;;;5070159;28;20188;-79
2022/05/16 01:56:52;;;;;;;0.60;0.30;;;22.70;99.90;;;;;;5075095;28;20196;-80
2022/05/16 01:59:23;;;;;;;0.30;0.30;;;22.70;99.90;;;;;;5069729;28;20212;-80
2022/05/16 02:01:54;;;;;;;1.75;0.50;;;22.70;99.90;;;;;;5070168;28;20189;-79
2022/05/16 02:04:24;;;;;;;0.50;0.40;;;22.70;99.90;;;;;;5070369;28;20265;-80
2022/05/16 02:06:55;;;;;;;0.52;0.40;;;22.70;99.90;;;;;;5068946;28;20219;-81
2022/05/16 02:09:27;;;;;;;0.20;0.20;;;22.70;99.90;;;;;;5062608;28;20207;-80
2022/05/16 02:11:58;;;;;;;0.80;0.40;;;22.80;99.90;;;;;;5063281;28;20192;-77
2022/05/16 02:14:29;;;;;;;0.30;0.30;;;22.90;99.90;;;;;;5088643;27;20587;-80
2022/05/16 02:16:59;;;;;;;0.20;0.20;;;22.90;99.90;;;;;;5110762;27;20239;-80
2022/05/16 02:19:30;;;;;;;1.25;0.30;;;22.90;99.90;;;;;;5110472;27;20194;-81
2022/05/16 02:24:49;;;;;;;1.35;0.35;;;22.90;99.90;;;;;;5113315;28;20672;-80
2022/05/16 02:27:20;;;;;;;0.20;0.20;;;22.90;99.90;;;;;;5110483;28;20559;-81
2022/05/16 02:29:51;;;;;;;1.23;0.28;;;22.90;99.90;;;;;;5113808;27;20205;-80
2022/05/16 02:32:22;;;;;;;0.55;0.40;;;22.90;99.90;;;;;;5110658;28;20191;-81
2022/05/16 02:34:56;;;;;;;0.40;0.40;;;23.00;99.90;;;;;;5109658;28;20186;-81
2022/05/16 02:37:27;;;;;;;0.88;0.30;;;23.10;99.90;;;;;;5110237;28;20202;-82
2022/05/16 02:39:59;;;;;;;0.30;0.30;;;23.10;99.90;;;;;;5106394;28;20236;-81
2022/05/16 02:42:30;;;;;;;1.63;0.30;;;23.10;99.90;;;;;;5109864;28;20215;-82
2022/05/16 02:45:01;;;;;;;0.80;0.40;;;23.10;99.90;;;;;;5110884;28;20576;-82
2022/05/16 02:47:32;;;;;;;0.50;0.40;;;23.20;99.90;;;;;;5103706;28;20283;-81
2022/05/16 02:50:06;;;;;;;0.77;0.40;;;23.20;99.90;;;;;;5104167;28;20217;-82
2022/05/16 02:52:37;;;;;;;0.98;0.40;;;23.20;99.90;;;;;;5108922;28;20190;-81
2022/05/16 02:55:10;;;;;;;1.15;0.43;;;23.30;99.90;;;;;;5110861;28;20195;-81
2022/05/16 02:57:41;;;;;;;0.85;0.30;;;23.40;99.90;;;;;;5102758;28;20187;-79
2022/05/16 03:00:13;;;;;;;0.52;0.50;;;23.40;99.90;;;;;;5122020;28;20221;-79
2022/05/16 03:02:46;;;;;;;0.50;0.50;;;23.30;99.90;;;;;;5110610;28;20270;-80
2022/05/16 03:05:18;;;;;;;0.47;0.30;;;23.40;99.90;;;;;;5113804;27;20243;-80
2022/05/16 03:07:48;;;;;;;0.60;0.50;;;23.40;99.90;;;;;;5098094;28;20195;-80
2022/05/16 03:10:21;;;;;;;0.50;0.43;;;23.30;99.90;;;;;;5107168;28;20202;-79
2022/05/16 03:12:51;;;;;;;0.30;0.30;;;23.30;99.90;;;;;;5110144;28;20267;-80
2022/05/16 03:15:22;;;;;;;2.60;0.30;;;23.40;99.90;;;;;;5108316;28;20218;-81
2022/05/16 03:17:53;;;;;;;0.68;0.40;;;23.40;99.90;;;;;;5108720;28;20187;-80
2022/05/16 03:20:24;;;;;;;1.23;0.50;;;23.50;99.90;;;;;;5106280;28;20199;-81
2022/05/16 03:22:54;;;;;;;0.70;0.30;;;23.50;99.90;;;;;;5112506;27;20191;-80
2022/05/16 03:25:27;;;;;;;0.40;0.40;;;23.50;99.90;;;;;;5108864;28;20229;-79
2022/05/16 03:27:58;;;;;;;0.52;0.40;;;23.50;99.90;;;;;;5116762;27;20633;-79
2022/05/16 03:30:29;;;;;;;0.52;0.47;;;23.40;99.90;;;;;;5132189;27;20259;-80
2022/05/16 03:32:59;;;;;;;1.77;0.70;;;23.40;99.90;;;;;;5114585;27;20203;-81
2022/05/16 03:35:31;;;;;;;2.40;0.40;;;23.40;99.90;;;;;;5113696;27;20194;-81
2022/05/16 03:38:02;;;;;;;0.90;0.50;;;23.40;99.90;;;;;;5119317;27;20243;-78
2022/05/16 03:40:45;;;;;;;0.93;0.50;;;23.20;99.90;;;;;;5113382;28;20350;-80
2022/05/16 03:43:17;;;;;;;1.55;0.68;;;23.20;99.90;;;;;;5133070;27;20186;-80
2022/05/16 03:45:47;;;;;;;0.40;0.40;;;23.30;99.90;;;;;;5125314;27;20218;-81
2022/05/16 03:48:18;;;;;;;0.85;0.50;;;23.30;99.90;;;;;;5106140;27;20195;-81
2022/05/16 03:50:49;;;;;;;0.95;0.57;;;23.30;99.90;;;;;;5114661;27;20202;-80
2022/05/16 03:53:19;;;;;;;0.40;0.40;;;23.20;99.90;;;;;;5122523;27;20186;-81
2022/05/16 03:55:52;;;;;;;0.85;0.60;;;23.20;99.90;;;;;;5112307;28;20202;-80
2022/05/16 03:58:23;;;;;;;3.08;0.60;;;23.20;99.90;;;;;;5112672;28;20202;-79
2022/05/16 04:00:54;;;;;;;0.85;0.57;;;23.20;99.90;;;;;;5106986;27;20248;-82
2022/05/16 04:03:24;;;;;;;1.40;0.73;;;23.30;99.90;;;;;;5119670;27;20716;-82
2022/05/16 04:05:55;;;;;;;1.27;0.60;;;23.30;99.90;;;;;;5102542;28;20271;-81
2022/05/16 04:08:26;;;;;;;1.50;0.60;;;23.40;99.90;;;;;;5118143;27;20227;-80
2022/05/16 04:11:00;;;;;;;0.55;0.50;;;23.40;99.90;;;;;;5114707;27;20214;-81
2022/05/16 04:13:32;;;;;;;0.52;0.45;;;23.40;99.90;;;;;;5115338;27;20243;-80
2022/05/16 04:16:03;;;;;;;0.40;0.40;;;23.30;99.90;;;;;;5115680;27;20234;-81
2022/05/16 04:18:33;;;;;;;0.50;0.50;;;23.30;99.90;;;;;;5111187;28;20203;-81
2022/05/16 04:21:04;;;;;;;1.08;0.60;;;23.30;99.90;;;;;;5116548;27;20302;-79
2022/05/16 04:23:35;;;;;;;1.13;0.63;;;23.40;99.90;;;;;;5112660;28;20205;-80
2022/05/16 04:26:08;;;;;;;1.10;0.60;;;23.30;99.90;;;;;;5114594;27;20222;-80
2022/05/16 04:28:38;;;;;;;0.50;0.50;;;23.30;99.90;;;;;;5114756;27;20233;-79
2022/05/16 04:31:09;;;;;;;0.55;0.43;;;23.40;99.90;;;;;;5112251;27;20194;-79
2022/05/16 04:33:40;;;;;;;1.67;0.50;;;23.30;99.90;;;;;;5113493;27;20207;-79
2022/05/16 04:36:10;;;;;;;0.90;0.70;;;23.30;99.90;;;;;;5108858;27;20867;-80
2022/05/16 04:38:41;;;;;;;0.50;0.50;;;23.30;99.90;;;;;;5111930;27;20657;-81
2022/05/16 04:44:00;;;;;;;1.90;0.55;;;23.30;99.90;;;;;;5129456;27;20331;-79
2022/05/16 04:46:31;;;;;;;0.93;0.55;;;23.30;99.90;;;;;;5112873;27;20272;-79
2022/05/16 04:49:02;;;;;;;1.25;0.43;;;23.40;99.90;;;;;;5102843;27;20542;-79
2022/05/16 04:51:33;;;;;;;0.85;0.60;;;23.30;99.90;;;;;;5112067;28;20279;-80
2022/05/16 04:54:03;;;;;;;1.45;0.60;;;23.30;99.90;;;;;;5112549;28;20214;-79
2022/05/16 04:56:37;;;;;;;1.00;0.50;;;23.30;99.90;;;;;;5106336;27;20198;-79
2022/05/16 04:59:08;;;;;;;1.05;0.50;;;23.30;99.90;;;;;;5110829;28;20258;-79
2022/05/16 05:01:39;;;;;;;0.40;0.40;;;23.30;99.90;;;;;;5110691;27;20195;-79
2022/05/16 05:04:10;;;;;;;1.95;0.52;;;23.20;99.90;;;;;;5117161;27;20209;-79
2022/05/16 05:06:41;;;;;;;0.95;0.50;;;23.20;99.90;;;;;;5112772;27;20214;-79
2022/05/16 05:09:11;;;;;;;1.77;0.57;;;23.10;99.90;;;;;;5112679;27;20187;-79
2022/05/16 05:14:38;;;;;;;3.80;0.50;;;23.20;99.90;;;;;;5112056;27;20237;-79
2022/05/16 05:17:10;;;;;;;0.80;0.50;;;23.20;99.90;;;;;;5110625;27;20187;-79
2022/05/16 05:19:42;;;;;;;1.83;0.55;;;23.20;99.90;;;;;;5110187;27;20248;-79
2022/05/16 05:22:13;;;;;;;0.70;0.50;;;23.20;99.90;;;;;;5110612;27;20278;-79
2022/05/16 05:24:43;;;;;;;0.60;0.55;;;23.20;99.90;;;;;;5112001;28;20637;-79
2022/05/16 05:27:16;;;;;;;1.40;0.47;;;23.20;99.90;;;;;;5115123;27;20222;-78
2022/05/16 05:29:48;;;;;;;0.60;0.60;;;23.20;99.90;;;;;;5109033;27;20194;-79
2022/05/16 05:32:19;;;;;;;0.68;0.55;;;23.20;99.90;;;;;;5124493;27;20276;-79
2022/05/16 05:34:50;;;;;;;0.98;0.60;;;23.20;99.90;;;;;;5114237;27;20199;-79
2022/05/16 05:37:21;;;;;;;0.98;0.65;;;23.20;99.90;;;;;;5104172;27;20260;-79
2022/05/16 05:39:52;;;;;;;0.43;0.43;;;23.20;99.90;;;;;;5111701;28;20607;-79
2022/05/16 05:42:26;;;;;;;0.50;0.50;;;23.20;99.90;;;;;;5107469;28;20198;-78
2022/05/16 05:44:56;;;;;;;0.60;0.50;;;23.20;99.90;;;;;;5105483;27;20187;-79
2022/05/16 05:47:27;;;;;;;0.57;0.57;;;23.20;99.90;;;;;;5104239;27;20295;-79
2022/05/16 05:49:59;;;;;;;2.72;0.60;;;23.20;99.90;;;;;;5107487;28;20194;-77
2022/05/16 05:52:30;;;;;;;2.35;0.70;;;23.30;99.90;;;;;;5120671;27;20212;-78
2022/05/16 05:55:01;;;;;;;1.48;0.70;;;23.30;99.90;;;;;;5140223;27;20584;-78
2022/05/16 05:57:34;;;;;;;0.47;0.40;;;23.30;99.90;;;;;;5118120;27;20202;-79
2022/05/16 06:00:06;;;;;;;0.80;0.80;;;23.30;99.90;;;;;;5110404;28;20190;-79
2022/05/16 06:02:37;;;;;;;0.63;0.63;;;23.30;99.90;;;;;;5108528;27;20256;-79
2022/05/16 06:05:08;;;;;;;1.02;0.80;;;23.40;99.90;;;;;;5112495;28;20182;-79
2022/05/16 06:07:39;;;;;;;1.08;0.80;;;23.40;99.90;;;;;;5129097;27;20229;-79
2022/05/16 06:10:12;;;;;;;0.70;0.60;;;23.50;99.90;;;;;;5111883;27;20190;-80
2022/05/16 06:12:44;;;;;;;1.75;0.80;;;23.60;99.90;;;;;;5113045;27;20210;-79
2022/05/16 06:15:15;;;;;;;2.83;0.80;;;23.60;99.90;;;;;;5106252;28;20699;-78
2022/05/16 06:17:46;;;;;;;0.75;0.60;;;23.70;99.90;;;;;;5107283;28;20202;-80
2022/05/16 06:20:18;;;;;;;0.88;0.43;;;23.80;99.90;;;;;;5115383;27;20194;-81
2022/05/16 06:22:48;;;;;;;1.08;0.60;;;23.80;99.90;;;;;;5111464;28;20186;-81
2022/05/16 06:25:39;;;;;;;0.93;0.52;;;23.90;99.90;;;;;;5129720;27;20288;-81
2022/05/16 06:28:14;;;;;;;2.15;0.60;;;23.80;99.90;;;;;;5112254;27;20222;-80
2022/05/16 06:30:45;;;;;;;1.17;0.65;;;23.70;99.90;;;;;;5110071;28;20640;-80
2022/05/16 06:33:17;;;;;;;1.40;0.80;;;23.70;99.90;;;;;;5109140;27;20244;-82
2022/05/16 06:35:48;;;;;;;1.52;0.60;;;23.60;99.90;;;;;;5109522;27;20190;-82
2022/05/16 06:38:24;;;;;;;1.05;0.47;;;23.40;99.90;;;;;;5111015;27;20194;-80
2022/05/16 06:40:56;;;;;;;0.75;0.40;;;23.40;99.90;;;;;;5109232;28;20198;-80
2022/05/16 06:43:29;;;;;;;0.88;0.60;;;23.30;99.90;;;;;;5104759;27;20198;-80
2022/05/16 06:46:02;;;;;;;3.22;0.70;;;23.20;99.90;;;;;;5109796;27;20194;-79
2022/05/16 06:48:33;;;;;;;0.75;0.50;;;23.10;99.90;;;;;;5107371;28;20308;-80
2022/05/16 06:51:03;;;;;;;1.27;0.50;;;23.10;99.90;;;;;;5103857;28;20199;-81
2022/05/16 06:53:34;;;;;;;0.50;0.50;;;23.00;99.90;;;;;;5110925;28;20206;-80
2022/05/16 06:56:05;;;;;;;1.10;0.65;;;22.90;99.90;;;;;;5114436;28;20194;-83
2022/05/16 06:58:37;;;;;;;0.85;0.43;;;22.80;99.90;;;;;;5119339;27;20265;-82
2022/05/16 07:01:08;;;;;;;4.75;0.68;;;22.80;99.90;;;;;;5108962;28;20657;-81
2022/05/16 07:03:40;;;;;;;1.73;0.70;;;22.70;99.90;;;;;;5125852;27;20254;-82
2022/05/16 07:06:14;;;;;;;2.05;0.65;;;22.60;99.90;;;;;;5106605;27;20191;-82
2022/05/16 07:08:45;;;;;;;0.95;0.60;;;22.50;99.90;;;;;;5122207;27;20213;-80
2022/05/16 07:11:15;;;;;;;2.45;0.70;;;22.40;99.90;;;;;;5103414;27;20264;-80
2022/05/16 07:13:48;;;;;;;1.33;0.60;;;22.40;99.90;;;;;;5114409;27;20240;-82
2022/05/16 07:16:18;;;;;;;0.60;0.60;;;22.30;99.90;;;;;;5107277;27;20194;-82
2022/05/16 07:18:49;;;;;;;0.50;0.50;;;22.30;99.90;;;;;;5125926;27;20199;-81
2022/05/16 07:21:20;;;;;;;0.93;0.80;;;22.20;99.90;;;;;;5120933;27;20651;-82
2022/05/16 07:23:51;;;;;;;0.70;0.70;;;22.20;99.90;;;;;;5113125;27;20206;-80
2022/05/16 07:29:10;;;;;;;40.28;35.92;;;22.10;99.90;;;;;;5114041;27;20320;-80
2022/05/16 07:31:41;;;;;;;24.67;22.08;;;22.00;99.90;;;;;;5107650;27;20199;-81
2022/05/16 07:34:13;;;;;;;9.40;6.68;;;21.90;99.90;;;;;;5113938;27;20678;-81
2022/05/16 07:36:44;;;;;;;28.48;25.48;;;21.80;99.90;;;;;;5111798;27;20252;-80
2022/05/16 07:39:15;;;;;;;10.80;9.63;;;21.80;99.90;;;;;;5114852;27;20590;-82
2022/05/16 07:41:45;;;;;;;3.65;3.35;;;21.70;99.90;;;;;;5106182;27;20563;-81
2022/05/16 07:44:18;;;;;;;3.83;2.50;;;21.70;99.90;;;;;;5117850;27;20264;-81
2022/05/16 07:46:49;;;;;;;4.35;3.38;;;21.60;99.90;;;;;;5120009;27;20580;-82
2022/05/16 07:49:20;;;;;;;3.85;3.40;;;21.60;99.90;;;;;;5107017;27;20186;-81
2022/05/16 07:51:51;;;;;;;3.17;2.60;;;21.50;99.90;;;;;;5114124;27;20198;-81
2022/05/16 07:54:22;;;;;;;2.97;2.20;;;21.50;99.90;;;;;;5113260;27;20191;-81
2022/05/16 07:56:52;;;;;;;3.63;2.80;;;21.40;99.90;;;;;;5124350;27;20191;-80
2022/05/16 07:59:26;;;;;;;5.78;3.60;;;21.40;99.90;;;;;;5122766;27;20190;-81
2022/05/16 08:01:56;;;;;;;4.25;3.80;;;21.30;99.90;;;;;;5114312;27;20524;-82
2022/05/16 08:04:27;;;;;;;10.73;9.65;;;21.30;99.90;;;;;;5107830;27;20239;-82
2022/05/16 08:06:57;;;;;;;12.43;11.15;;;21.20;99.90;;;;;;5113903;27;20191;-81
2022/05/16 08:12:16;;;;;;;7.60;6.30;;;21.20;99.90;;;;;;5111378;27;20248;-81
2022/05/16 08:14:49;;;;;;;7.65;5.40;;;21.10;99.90;;;;;;5111087;27;20230;-80
2022/05/16 08:17:19;;;;;;;5.45;3.05;;;21.10;99.90;;;;;;5114627;27;20252;-81
2022/05/16 08:19:51;;;;;;;5.65;2.90;;;21.10;99.90;;;;;;5113958;28;20194;-81
2022/05/16 08:22:21;;;;;;;3.78;2.83;;;21.00;99.90;;;;;;5113228;27;20202;-78
2022/05/16 08:24:52;;;;;;;6.57;2.70;;;21.00;99.90;;;;;;5110808;27;20243;-78
2022/05/16 08:27:23;;;;;;;9.02;3.80;;;21.00;99.90;;;;;;5110837;27;20252;-78
2022/05/16 08:29:55;;;;;;;6.38;3.13;;;21.00;99.90;;;;;;5110357;28;20206;-78
2022/05/16 08:32:26;;;;;;;7.03;4.32;;;21.00;99.90;;;;;;5112192;28;20240;-77
2022/05/16 08:35:03;;;;;;;8.95;4.55;;;20.90;99.90;;;;;;5113245;28;20239;-78
2022/05/16 08:40:23;;;;;;;7.35;3.72;;;20.90;99.90;;;;;;5112512;27;20558;-78
2022/05/16 08:42:55;;;;;;;4.45;2.72;;;20.90;99.90;;;;;;5103838;27;20191;-79
2022/05/16 08:45:34;;;;;;;5.30;3.28;;;20.90;99.90;;;;;;5112029;27;20736;-79
2022/05/16 08:48:12;;;;;;;4.13;2.40;;;20.90;99.90;;;;;;5108022;27;20270;-79
2022/05/16 08:50:54;;;;;;;3.15;2.00;;;20.90;99.90;;;;;;5113032;27;20661;-78
2022/05/16 08:53:28;;;;;;;4.78;2.72;;;20.90;99.90;;;;;;5111857;28;20194;-80
2022/05/16 08:56:03;;;;;;;7.05;2.30;;;20.90;99.90;;;;;;5120799;27;20657;-79
2022/05/16 08:58:37;;;;;;;4.60;2.08;;;20.90;99.90;;;;;;5112364;27;20555;-78
2022/05/16 09:01:13;;;;;;;5.85;2.20;;;20.90;99.90;;;;;;5109414;27;20649;-78
2022/05/16 09:03:53;;;;;;;4.57;2.25;;;20.90;99.90;;;;;;5103327;27;20254;-78
2022/05/16 09:06:27;;;;;;;4.32;1.88;;;20.90;99.90;;;;;;5101817;28;20191;-77
2022/05/16 09:09:04;;;;;;;2.58;1.70;;;20.90;99.90;;;;;;5108743;27;20218;-77
2022/05/16 09:11:42;;;;;;;4.80;1.83;;;20.90;99.90;;;;;;5103134;28;20642;-76
2022/05/16 09:14:38;;;;;;;4.43;1.92;;;21.00;99.90;;;;;;5109447;27;20279;-76
2022/05/16 09:17:15;;;;;;;3.95;1.70;;;21.00;99.90;;;;;;5103878;28;20649;-78
2022/05/16 09:20:03;;;;;;;3.50;1.50;;;20.90;99.90;;;;;;5114720;27;20277;-77
2022/05/16 09:22:40;;;;;;;2.63;1.30;;;20.90;99.90;;;;;;5108712;27;20198;-77
2022/05/16 09:25:15;;;;;;;5.22;1.40;;;20.90;99.90;;;;;;5111048;28;20274;-77
2022/05/16 09:30:39;;;;;;;4.72;1.40;;;20.80;99.90;;;;;;5106598;27;20681;-77
2022/05/16 09:33:14;;;;;;;3.10;1.45;;;20.80;99.90;;;;;;5112098;28;20191;-78
2022/05/16 09:35:52;;;;;;;5.55;1.30;;;20.70;99.90;;;;;;5111760;27;20190;-80
2022/05/16 09:38:22;;;;;;;2.75;1.35;;;20.70;99.90;;;;;;5111497;27;20186;-77
2022/05/16 09:41:11;;;;;;;4.85;1.20;;;20.70;99.90;;;;;;5110361;27;20205;-77
2022/05/16 09:43:45;;;;;;;6.43;1.40;;;20.70;99.90;;;;;;5111399;28;20244;-77
2022/05/16 09:46:30;;;;;;;5.32;1.30;;;20.70;99.90;;;;;;5103165;28;20560;-77
2022/05/16 09:49:15;;;;;;;3.60;1.00;;;20.60;99.90;;;;;;5106205;28;20229;-77
2022/05/16 09:51:49;;;;;;;2.35;1.42;;;20.60;99.90;;;;;;5108951;27;20198;-78
2022/05/16 09:54:26;;;;;;;5.68;1.30;;;20.50;99.90;;;;;;5103640;27;20665;-77
2022/05/16 09:57:18;;;;;;;3.45;1.30;;;20.50;99.90;;;;;;5108675;27;20685;-77
2022/05/16 09:59:52;;;;;;;3.67;1.38;;;20.40;99.90;;;;;;5106844;27;20248;-77
2022/05/16 10:02:26;;;;;;;2.28;1.20;;;20.40;99.90;;;;;;5110540;28;20276;-77
2022/05/16 10:05:02;;;;;;;2.47;1.13;;;20.40;99.90;;;;;;5106367;28;20235;-77
2022/05/16 10:07:43;;;;;;;3.50;1.30;;;20.40;99.90;;;;;;5109187;28;20224;-77
2022/05/16 10:10:19;;;;;;;4.22;1.40;;;20.30;99.90;;;;;;5112814;27;20226;-77
2022/05/16 10:12:50;;;;;;;4.40;1.38;;;20.30;99.90;;;;;;5101107;28;20232;-78
2022/05/16 10:15:21;;;;;;;3.22;1.30;;;20.30;99.90;;;;;;5110640;28;20283;-77
2022/05/16 10:17:57;;;;;;;4.88;1.63;;;20.20;99.90;;;;;;5104987;28;20254;-77
2022/05/16 10:20:35;;;;;;;3.63;1.75;;;20.20;99.90;;;;;;5108096;28;20221;-76
2022/05/16 10:23:08;;;;;;;3.97;1.27;;;20.10;99.90;;;;;;5103959;27;20604;-77
2022/05/16 10:25:42;;;;;;;5.28;1.73;;;20.10;99.90;;;;;;5110514;27;20255;-75
2022/05/16 10:28:17;;;;;;;2.55;1.50;;;20.00;99.90;;;;;;5106882;28;20552;-76
2022/05/16 10:33:38;;;;;;;6.57;1.27;;;19.90;99.90;;;;;;5126966;27;20212;-77
2022/05/16 10:36:16;;;;;;;3.53;1.15;;;19.90;99.90;;;;;;5121615;27;20191;-78
2022/05/16 10:38:52;;;;;;;2.65;1.45;;;19.90;99.90;;;;;;5110870;28;20205;-80
2022/05/16 10:41:28;;;;;;;4.38;1.70;;;19.90;99.90;;;;;;5102022;28;20230;-77
2022/05/16 10:44:08;;;;;;;5.60;1.95;;;19.90;99.90;;;;;;5108549;27;20235;-76
2022/05/16 10:46:42;;;;;;;3.83;1.55;;;19.80;99.90;;;;;;5111838;27;20281;-77
2022/05/16 10:49:17;;;;;;;3.38;1.45;;;19.80;99.90;;;;;;5107416;27;20222;-77
2022/05/16 10:51:54;;;;;;;4.00;1.23;;;19.80;99.90;;;;;;5110416;28;20258;-75
2022/05/16 10:54:26;;;;;;;2.65;1.17;;;19.80;99.90;;;;;;5103760;28;20230;-76
2022/05/16 10:57:23;;;;;;;3.70;1.30;;;19.70;99.90;;;;;;5109433;28;20202;-76
2022/05/16 11:00:11;;;;;;;3.00;1.33;;;19.70;99.90;;;;;;5105181;28;20272;-76
2022/05/16 11:03:32;;;;;;;5.60;1.45;;;19.70;99.90;;;;;;5109172;28;20191;-76
2022/05/16 11:06:17;;;;;;;3.65;1.38;;;19.60;99.90;;;;;;5045245;28;20192;-76
2022/05/16 11:08:58;;;;;;;3.55;1.13;;;19.60;99.90;;;;;;5047662;28;20213;-76
2022/05/16 11:11:35;;;;;;;3.88;1.40;;;19.50;99.90;;;;;;5091948;28;20229;-76
2022/05/16 11:14:12;;;;;;;5.40;1.10;;;19.40;99.90;;;;;;5107999;28;20197;-76
2022/05/16 11:16:43;;;;;;;1.85;0.90;;;19.40;99.90;;;;;;5108987;28;20202;-75
2022/05/16 11:19:33;;;;;;;3.47;0.93;;;19.40;99.90;;;;;;5103252;28;20195;-75
2022/05/16 11:22:09;;;;;;;3.47;1.10;;;19.40;99.90;;;;;;5115587;28;20251;-78
2022/05/16 11:24:48;;;;;;;4.50;1.30;;;19.40;99.90;;;;;;5109124;28;20318;-78
2022/05/16 11:27:30;;;;;;;2.55;1.10;;;19.30;99.90;;;;;;5109479;28;20611;-78
2022/05/16 11:30:10;;;;;;;2.35;1.45;;;19.40;99.90;;;;;;5109590;28;20218;-77
2022/05/16 11:33:02;;;;;;;3.58;1.20;;;19.40;99.90;;;;;;5110271;28;20198;-78
2022/05/16 11:35:42;;;;;;;2.67;1.40;;;19.30;99.90;;;;;;5109435;28;20281;-77
2022/05/16 11:38:28;;;;;;;4.18;1.33;;;19.30;99.90;;;;;;5108221;28;20263;-78
2022/05/16 11:41:09;;;;;;;2.95;1.20;;;19.30;99.90;;;;;;5103386;28;20244;-77
2022/05/16 11:43:44;;;;;;;4.13;1.20;;;19.30;99.90;;;;;;5098095;28;20199;-77
2022/05/16 11:46:30;;;;;;;4.22;1.20;;;19.30;99.90;;;;;;5109344;28;20201;-77
2022/05/16 11:49:23;;;;;;;2.10;1.25;;;19.30;99.90;;;;;;5105556;27;20214;-78
2022/05/16 11:52:24;;;;;;;2.50;1.20;;;19.20;99.90;;;;;;5111771;27;20198;-76
2022/05/16 11:55:00;;;;;;;3.10;1.30;;;19.30;99.90;;;;;;5109508;27;20199;-77
2022/05/16 12:00:35;;;;;;;2.70;1.30;;;19.30;99.90;;;;;;5104620;27;20285;-78
2022/05/16 12:03:20;;;;;;;4.07;1.17;;;19.20;99.90;;;;;;5112750;28;20194;-77
2022/05/16 12:06:14;;;;;;;3.65;1.20;;;19.20;99.90;;;;;;5110193;27;20199;-77
2022/05/16 12:08:47;;;;;;;2.17;1.27;;;19.10;99.90;;;;;;5116941;27;20264;-78
2022/05/16 12:11:24;;;;;;;4.80;1.40;;;19.00;99.90;;;;;;5113002;27;20215;-77
2022/05/16 12:14:05;;;;;;;4.07;1.20;;;19.10;99.90;;;;;;5108429;28;20728;-76
2022/05/16 12:16:42;;;;;;;2.42;1.33;;;19.00;99.90;;;;;;5111396;28;20654;-76
2022/05/16 12:19:18;;;;;;;3.95;1.25;;;19.00;99.90;;;;;;5107588;27;20199;-77
2022/05/16 12:21:59;;;;;;;3.05;1.20;;;19.00;99.90;;;;;;5114008;27;20201;-77
2022/05/16 12:24:41;;;;;;;4.32;1.30;;;19.00;99.90;;;;;;5110883;27;20255;-78
2022/05/16 12:27:27;;;;;;;2.92;1.10;;;19.00;99.90;;;;;;5112341;27;20285;-77
2022/05/16 12:30:01;;;;;;;4.35;1.20;;;19.00;99.90;;;;;;5119580;27;20219;-76
2022/05/16 12:32:56;;;;;;;3.20;1.30;;;19.00;99.90;;;;;;5112017;28;20280;-77
2022/05/16 12:35:45;;;;;;;2.50;0.85;;;19.00;99.90;;;;;;5111020;28;20191;-76
2022/05/16 12:38:18;;;;;;;2.63;1.10;;;18.90;99.90;;;;;;5104559;27;20256;-77
2022/05/16 12:41:47;;;;;;;3.53;1.10;;;18.90;99.90;;;;;;5106906;27;20250;-78
2022/05/16 12:44:42;;;;;;;3.03;1.02;;;18.90;99.90;;;;;;5068826;28;20194;-76
2022/05/16 12:47:47;;;;;;;3.33;1.35;;;18.90;99.90;;;;;;5103201;27;20204;-77
2022/05/16 12:50:45;;;;;;;4.30;1.17;;;18.90;99.90;;;;;;5110587;27;20218;-77
2022/05/16 12:53:43;;;;;;;3.63;1.17;;;18.90;99.90;;;;;;5106682;27;20263;-77
2022/05/16 12:56:25;;;;;;;3.30;1.00;;;18.90;99.90;;;;;;5093948;27;20197;-76
2022/05/16 12:59:04;;;;;;;3.03;1.27;;;18.90;99.90;;;;;;5114310;27;20286;-77
2022/05/16 13:01:40;;;;;;;4.28;1.02;;;18.90;99.90;;;;;;5110800;27;20273;-76
2022/05/16 13:04:23;;;;;;;3.08;1.17;;;18.90;99.90;;;;;;5112529;27;20267;-76
2022/05/16 13:07:01;;;;;;;3.63;1.50;;;18.90;99.90;;;;;;5128609;28;20191;-75
2022/05/16 13:09:46;;;;;;;4.53;1.30;;;18.90;99.90;;;;;;5135173;28;20206;-76
2022/05/16 13:12:33;;;;;;;2.35;1.30;;;18.80;99.90;;;;;;5134417;27;20170;-77
2022/05/16 13:15:09;;;;;;;3.55;1.20;;;18.70;99.90;;;;;;5111764;28;20279;-77
2022/05/16 13:17:44;;;;;;;3.83;1.20;;;18.60;99.90;;;;;;5117113;27;20189;-76
2022/05/16 13:20:20;;;;;;;2.40;1.27;;;18.50;99.90;;;;;;5116813;27;20194;-76
2022/05/16 13:22:52;;;;;;;4.95;1.40;;;18.50;99.90;;;;;;5111556;27;20653;-76
2022/05/16 13:25:26;;;;;;;3.28;1.15;;;18.40;99.90;;;;;;5112659;27;20194;-77
2022/05/16 13:30:46;;;;;;;3.00;1.02;;;18.30;99.90;;;;;;5099413;28;20712;-76
2022/05/16 13:33:29;;;;;;;3.05;1.30;;;18.30;99.90;;;;;;5119408;27;20193;-76
2022/05/16 13:36:19;;;;;;;3.20;1.20;;;18.30;99.90;;;;;;5111768;28;20282;-77
2022/05/16 13:38:55;;;;;;;2.92;1.13;;;18.30;99.90;;;;;;5112607;28;20199;-77
2022/05/16 13:41:27;;;;;;;3.78;1.10;;;18.40;99.90;;;;;;5111408;27;20190;-77
2022/05/16 13:43:58;;;;;;;3.83;1.23;;;18.40;99.90;;;;;;5107360;27;20690;-79
2022/05/16 13:46:31;;;;;;;3.58;1.33;;;18.40;99.90;;;;;;5111307;27;20215;-80
2022/05/16 13:49:04;;;;;;;2.47;1.13;;;18.40;99.90;;;;;;5105079;27;20215;-78
2022/05/16 13:51:38;;;;;;;2.60;1.08;;;18.40;99.90;;;;;;5111905;27;20205;-78
2022/05/16 13:54:09;;;;;;;4.88;1.30;;;18.40;99.90;;;;;;5104849;27;20713;-76
2022/05/16 13:56:42;;;;;;;4.65;1.35;;;18.40;99.90;;;;;;5111089;28;20256;-77